Merced, CA (95341)

2:34 PM PDT on September 22, 2014 (GMT -0700)
North Merced | Change Station
CLOSE
Current Station
Personal Weather Station
Location: Merced, CA
Elevation: 184 ft
Nearby Weather Stations

Elev 184 ft 37.34 °N, 120.46 °W | Updated 2 seconds ago

Clear
Clear
86.0 °F
Feels Like 86 °F
N
2.0
Wind Variable Wind from West
Gusts 8.0 mph

Today
High -- | Low -- °F
--% Chance of Precip.
Yesterday
High -- | Low -- °F
Precip. -- in
6:49 AM 6:58 PM
Waning Crescent, 2% visible
Pressure 29.94 in
Visibility 10.0 miles
Clouds Clear
Heat Index 86 °F
Dew Point 60 °F
Humidity 42%
Rainfall 0.00 in
Snow Depth 0 in , 0 in , 0 in
UV 8 out of 12
Pollen 6.00 out of 12
Ozone Good
Flu Activity Not available.
METAR KMCE 222053Z AUTO 30007KT 10SM CLR 29/13 A2995 RMK AO2 SLP139 T02940133 58020

More Conditions Fewer Conditions

Pressure 29.94 in
Visibility 10.0 miles
Clouds Clear
Heat Index 86 °F
Dew Point 60 °F
Humidity 42%
Rainfall 0.00 in
Snow Depth 0 in , 0 in , 0 in
UV 8 out of 12
Pollen 6.00 out of 12
Ozone Good
Flu Activity Not available.
METAR KMCE 222053Z AUTO 30007KT 10SM CLR 29/13 A2995 RMK AO2 SLP139 T02940133 58020

More Conditions Fewer Conditions

10-Day Weather Forecast

Almanac

Astronomy

Sep. 22, 2014 Rise Set
Actual Time 6:49 AM PDT 6:58 PM PDT
Civil Twilight 6:23 AM PDT 7:24 PM PDT
Nautical Twilight 5:53 AM PDT 7:55 PM PDT
Astronomical Twilight 5:22 AM PDT 8:25 PM PDT
Moon 5:24 AM PDT 6:08 PM PDT
Length of Visible Light 13h 00m
Length of Day
12h 08m
Tomorrow will be 2m 22s shorter.
Waning Crescent, 2% of the Moon is Illuminated
Today
Waning Crescent
Sep 24
New
Oct 1
First Quarter
Oct 8
Full
Oct 15
Last Quarter

Today's Extremes

State Highs State Lows

Community

WunderPhotos

Upload Photos

1,755,537 photos uploaded!

WunderBlogs® & News

Nearby

Air Quality

  Air Quality AQ Index Pollutant
Yesterday Good
OZONE
Current Good
OZONE
Monday Good
OZONE
Tuesday Good
OZONE
Wednesday Good
OZONE
Thursday Good
OZONE
Friday Good
OZONE

Snow Depth

Station Depth Elevation
Adin Mountain 0 in 6200 ft
Leavitt Meadows 0 in 7200 ft
Summit Meadow 0 in 9122 ft
Rubicon #2 0 in 7500 ft
CSS Lab 3 in 6900 ft

Earthquake Activity

City Distance Mag. Time & Date
Sonoma, California 124 miles 2.7 1:17 PM PDT
2014-09-21
Livermore, California 72 miles 2.6 3:37 AM PDT
2014-09-19
Minimum magnitude displayed is 2.5.

Coastal Water Temperatures

Place Temperature
No Stations Reporting

Nearby Weather Stations